Time;durP1;ratioP1;P1;durP2;ratioP2;P2;SDS_P1;SDS_P2;PMS_P1;PMS_P2;Temp;Humidity;BMP_temperature;BMP_pressure;BME280_temperature;BME280_humidity;BME280_pressure;Samples;Min_cycle;Max_cycle;Signal;HPM_P1;HPM_P2
2023/09/03 00:00:43;;;;;;;43.35;39.75;;;16.90;99.90;;;;;;5026086;28;20054;-67
2023/09/03 00:03:09;;;;;;;41.10;37.70;;;17.60;99.90;;;;;;5027541;28;20041;-68
2023/09/03 00:05:35;;;;;;;38.75;35.67;;;16.80;99.90;;;;;;5037518;28;20040;-67
2023/09/03 00:08:00;;;;;;;46.10;42.30;;;17.30;99.90;;;;;;5028674;28;20172;-67
2023/09/03 00:10:26;;;;;;;44.40;40.40;;;16.80;99.90;;;;;;5028779;28;20040;-67
2023/09/03 00:12:51;;;;;;;45.17;41.25;;;16.80;99.90;;;;;;5023859;28;20060;-66
2023/09/03 00:15:25;;;;;;;54.53;44.03;;;17.30;99.90;;;;;;5043376;28;20041;-66
2023/09/03 00:17:51;;;;;;;49.83;39.78;;;17.30;99.90;;;;;;5029401;28;20045;-67
2023/09/03 00:20:16;;;;;;;110.10;39.03;;;17.30;99.90;;;;;;5037223;28;20071;-66
2023/09/03 00:22:42;;;;;;;42.88;39.58;;;17.00;99.90;;;;;;5029756;28;20029;-68
2023/09/03 00:25:08;;;;;;;80.95;38.80;;;16.70;99.90;;;;;;5033228;28;20038;-67
2023/09/03 00:27:34;;;;;;;199.77;42.83;;;16.80;99.90;;;;;;5031351;28;20427;-67
2023/09/03 00:29:59;;;;;;;145.63;38.92;;;16.90;99.90;;;;;;5031090;28;20128;-67
2023/09/03 00:32:25;;;;;;;81.65;37.08;;;16.70;99.90;;;;;;5033078;28;20037;-66
2023/09/03 00:34:51;;;;;;;78.63;38.30;;;16.90;99.90;;;;;;5033078;28;20483;-67
2023/09/03 00:37:17;;;;;;;40.38;36.42;;;16.70;99.90;;;;;;5049636;28;20041;-67
2023/09/03 00:39:43;;;;;;;42.92;39.05;;;16.90;99.90;;;;;;5025765;28;20045;-67
2023/09/03 00:42:08;;;;;;;54.45;40.55;;;16.50;99.90;;;;;;5027575;28;20472;-67
2023/09/03 00:44:34;;;;;;;44.70;40.90;;;16.50;99.90;;;;;;5024766;28;20439;-67
2023/09/03 00:47:00;;;;;;;44.35;40.63;;;16.70;99.90;;;;;;5032905;28;20029;-64
2023/09/03 00:49:26;;;;;;;43.88;40.35;;;17.30;99.90;;;;;;5032296;28;20040;-64
2023/09/03 00:51:53;;;;;;;45.40;41.70;;;17.30;99.90;;;;;;5033347;28;20037;-63
2023/09/03 00:54:23;;;;;;;44.63;40.78;;;16.70;99.90;;;;;;5033235;28;20041;-63
2023/09/03 00:56:53;;;;;;;44.55;40.72;;;17.50;99.90;;;;;;5032144;28;20046;-63
2023/09/03 00:59:19;;;;;;;36.30;33.33;;;17.50;99.90;;;;;;5031458;28;20088;-63
2023/09/03 01:01:48;;;;;;;37.42;34.55;;;16.80;99.90;;;;;;5032155;28;20092;-64
2023/09/03 01:04:14;;;;;;;43.47;40.17;;;16.80;99.90;;;;;;5030263;28;20042;-64
2023/09/03 01:06:40;;;;;;;43.70;40.20;;;17.10;99.90;;;;;;5032043;28;20042;-63
2023/09/03 01:09:06;;;;;;;45.85;42.15;;;17.20;99.90;;;;;;5032697;28;20407;-63
2023/09/03 01:11:44;;;;;;;46.38;42.78;;;16.90;99.90;;;;;;5038787;28;20383;-63
2023/09/03 01:14:28;;;;;;;44.95;41.00;;;17.40;99.90;;;;;;5036244;28;20112;-64
2023/09/03 01:17:27;;;;;;;44.30;39.85;;;17.20;99.90;;;;;;5027711;28;20049;-63
2023/09/03 01:20:12;;;;;;;46.13;41.22;;;16.50;99.90;;;;;;5024808;28;20107;-63
2023/09/03 01:22:45;;;;;;;76.22;41.15;;;16.80;99.90;;;;;;5031857;28;20045;-63
2023/09/03 01:25:13;;;;;;;44.72;40.33;;;16.60;99.90;;;;;;5032357;28;20513;-63
2023/09/03 01:27:51;;;;;;;88.72;37.92;;;17.40;99.90;;;;;;5023890;28;20139;-63
2023/09/03 01:30:18;;;;;;;43.10;39.22;;;16.70;99.90;;;;;;5030859;28;20033;-63
2023/09/03 01:32:45;;;;;;;49.03;45.13;;;16.60;99.90;;;;;;5032850;28;20033;-64
2023/09/03 01:35:12;;;;;;;46.53;42.78;;;16.80;99.90;;;;;;5030361;28;20392;-63
2023/09/03 01:37:38;;;;;;;47.47;43.58;;;16.70;99.90;;;;;;5031267;28;20116;-64
2023/09/03 01:40:04;;;;;;;50.42;46.33;;;17.40;99.90;;;;;;5024546;28;20459;-63
2023/09/03 01:42:29;;;;;;;67.40;44.67;;;17.40;99.90;;;;;;5028614;28;20042;-63
2023/09/03 01:44:55;;;;;;;123.75;41.33;;;17.10;99.90;;;;;;5030786;28;20063;-63
2023/09/03 01:47:48;;;;;;;96.30;40.85;;;16.60;99.90;;;;;;5031666;28;20452;-63
2023/09/03 01:50:40;;;;;;;43.67;39.00;;;16.90;99.90;;;;;;5030415;28;20057;-63
2023/09/03 01:53:20;;;;;;;46.63;39.80;;;16.60;99.90;;;;;;5040008;28;20181;-63
2023/09/03 01:55:53;;;;;;;43.17;39.88;;;17.00;99.90;;;;;;5030051;28;20042;-63
2023/09/03 01:58:20;;;;;;;45.45;41.97;;;16.80;99.90;;;;;;5034398;28;20372;-64
2023/09/03 02:00:48;;;;;;;47.72;43.92;;;16.70;99.90;;;;;;5029944;28;20080;-63
2023/09/03 02:03:14;;;;;;;43.35;40.05;;;16.20;99.90;;;;;;5032453;28;20064;-63
2023/09/03 02:05:40;;;;;;;43.90;40.38;;;17.00;99.90;;;;;;5029422;28;20069;-64
2023/09/03 02:08:06;;;;;;;43.95;40.40;;;16.20;99.90;;;;;;5031065;28;20076;-63
2023/09/03 02:10:31;;;;;;;43.30;39.92;;;16.10;99.90;;;;;;5029931;28;20102;-63
2023/09/03 02:12:57;;;;;;;41.97;38.38;;;16.00;99.90;;;;;;5031933;28;20049;-63
2023/09/03 02:15:22;;;;;;;45.00;41.22;;;16.30;99.90;;;;;;5027603;28;20082;-64
2023/09/03 02:17:48;;;;;;;44.47;40.38;;;16.30;99.90;;;;;;5030454;28;20051;-63
2023/09/03 02:20:13;;;;;;;44.55;40.85;;;17.20;99.90;;;;;;5029600;28;20072;-63
2023/09/03 02:22:39;;;;;;;44.05;40.25;;;16.20;99.90;;;;;;5030719;28;20099;-64
2023/09/03 02:25:05;;;;;;;43.83;40.33;;;16.30;99.90;;;;;;5029673;28;20045;-63
2023/09/03 02:27:31;;;;;;;43.33;39.88;;;16.80;99.90;;;;;;5030821;28;20485;-63
2023/09/03 02:29:56;;;;;;;42.33;38.92;;;16.30;99.90;;;;;;5033742;28;20044;-63
2023/09/03 02:32:22;;;;;;;41.70;38.40;;;16.40;99.90;;;;;;5030466;28;20124;-63
2023/09/03 02:34:48;;;;;;;42.08;38.95;;;16.30;99.90;;;;;;5029472;28;20062;-63
2023/09/03 02:37:13;;;;;;;40.47;36.75;;;17.40;99.90;;;;;;5030367;28;20064;-63
2023/09/03 02:39:39;;;;;;;39.25;35.42;;;16.30;99.90;;;;;;5029045;28;20407;-63
2023/09/03 02:42:04;;;;;;;143.18;38.95;;;17.30;99.90;;;;;;5029286;28;20041;-64
2023/09/03 02:44:30;;;;;;;78.90;42.70;;;16.30;99.90;;;;;;5029694;28;20084;-63
2023/09/03 02:46:56;;;;;;;41.13;38.00;;;16.50;99.90;;;;;;5030218;28;20523;-63
2023/09/03 02:49:22;;;;;;;39.25;36.20;;;16.30;99.90;;;;;;5029757;28;20922;-63
2023/09/03 02:51:47;;;;;;;40.58;37.13;;;16.70;99.90;;;;;;5028824;28;20076;-63
2023/09/03 02:54:13;;;;;;;102.90;37.65;;;16.30;99.90;;;;;;5029339;28;20045;-63
2023/09/03 02:56:38;;;;;;;46.33;37.60;;;16.20;99.90;;;;;;5030055;28;20044;-63
2023/09/03 02:59:04;;;;;;;58.25;36.15;;;17.00;99.90;;;;;;5031235;28;20407;-64
2023/09/03 03:01:30;;;;;;;41.00;37.08;;;17.10;99.90;;;;;;5029234;28;20410;-64
2023/09/03 03:03:56;;;;;;;41.30;37.38;;;16.20;99.90;;;;;;5027914;28;20060;-64
2023/09/03 03:06:21;;;;;;;63.33;38.50;;;17.00;99.90;;;;;;5028163;28;20033;-63
2023/09/03 03:08:47;;;;;;;172.95;40.65;;;16.20;99.90;;;;;;5028760;28;20083;-66
2023/09/03 03:11:14;;;;;;;158.73;41.25;;;16.10;99.90;;;;;;5025456;28;20044;-66
2023/09/03 03:13:42;;;;;;;261.63;45.58;;;16.10;99.90;;;;;;5025919;28;20099;-66
2023/09/03 03:16:09;;;;;;;211.35;45.50;;;16.00;99.90;;;;;;5028791;28;20037;-65
2023/09/03 03:18:37;;;;;;;320.40;45.13;;;15.90;99.90;;;;;;5029738;28;20492;-66
2023/09/03 03:21:20;;;;;;;97.03;44.13;;;16.70;99.90;;;;;;5029150;28;20132;-66
2023/09/03 03:23:49;;;;;;;80.20;42.65;;;16.20;99.90;;;;;;5028633;28;20041;-66
2023/09/03 03:26:15;;;;;;;176.32;42.00;;;16.60;99.90;;;;;;5029693;28;20150;-66
2023/09/03 03:28:41;;;;;;;149.95;40.10;;;16.60;99.90;;;;;;5029782;28;20048;-66
2023/09/03 03:31:17;;;;;;;86.80;39.88;;;16.10;99.90;;;;;;5026584;28;20399;-66
2023/09/03 03:33:44;;;;;;;141.75;41.85;;;15.70;99.90;;;;;;5028122;28;20052;-66
2023/09/03 03:36:13;;;;;;;108.45;38.17;;;16.50;99.90;;;;;;5029582;28;20045;-66
2023/09/03 03:38:39;;;;;;;54.67;39.05;;;16.10;99.90;;;;;;5029339;28;20187;-66
2023/09/03 03:41:18;;;;;;;60.80;38.80;;;15.80;99.90;;;;;;5029961;28;20120;-66
2023/09/03 03:43:46;;;;;;;39.20;36.28;;;16.60;99.90;;;;;;5031093;28;20037;-66
2023/09/03 03:46:14;;;;;;;58.50;39.45;;;15.80;99.90;;;;;;5029651;28;20037;-67
2023/09/03 03:48:40;;;;;;;43.53;36.78;;;15.70;99.90;;;;;;5029758;28;20081;-66
2023/09/03 03:51:06;;;;;;;37.92;35.20;;;15.90;99.90;;;;;;5028646;28;20524;-66
2023/09/03 03:53:32;;;;;;;38.20;35.40;;;16.90;99.90;;;;;;5027869;28;20175;-66
2023/09/03 03:56:05;;;;;;;36.75;34.00;;;16.70;99.90;;;;;;5029088;28;20037;-66
2023/09/03 03:58:33;;;;;;;41.53;38.38;;;16.80;99.90;;;;;;5033096;28;20038;-66
2023/09/03 04:00:59;;;;;;;40.25;37.20;;;16.80;99.90;;;;;;5031966;28;20045;-66
2023/09/03 04:03:28;;;;;;;40.17;36.70;;;15.90;99.90;;;;;;5032940;28;20033;-66
2023/09/03 04:05:57;;;;;;;42.03;38.92;;;16.60;99.90;;;;;;5032111;28;20044;-66
2023/09/03 04:08:23;;;;;;;41.10;38.08;;;16.90;99.90;;;;;;5033218;28;20124;-66
2023/09/03 04:10:59;;;;;;;37.58;34.38;;;17.00;99.90;;;;;;5031025;28;20128;-66
2023/09/03 04:13:26;;;;;;;40.28;37.25;;;17.00;99.90;;;;;;5037165;28;20041;-66
2023/09/03 04:15:51;;;;;;;40.33;37.15;;;16.90;99.90;;;;;;5033859;28;20033;-66
2023/09/03 04:18:17;;;;;;;38.10;35.20;;;16.70;99.90;;;;;;5033475;28;20178;-63
2023/09/03 04:20:42;;;;;;;43.08;39.72;;;16.20;99.90;;;;;;5032456;28;20030;-64
2023/09/03 04:23:08;;;;;;;43.08;39.60;;;16.60;99.90;;;;;;5031625;28;20444;-63
2023/09/03 04:25:33;;;;;;;40.85;37.67;;;17.00;99.90;;;;;;5033012;28;20033;-63
2023/09/03 04:27:59;;;;;;;37.28;34.47;;;17.00;99.90;;;;;;5033014;28;20045;-63
2023/09/03 04:30:24;;;;;;;41.60;38.13;;;16.30;99.90;;;;;;5036478;28;20171;-63
2023/09/03 04:32:50;;;;;;;39.45;36.25;;;16.10;99.90;;;;;;5033155;28;20044;-64
2023/09/03 04:35:15;;;;;;;40.53;37.47;;;16.50;99.90;;;;;;5032576;28;20045;-63
2023/09/03 04:37:41;;;;;;;42.63;39.42;;;16.60;99.90;;;;;;5025419;28;20037;-63
2023/09/03 04:40:08;;;;;;;39.13;35.85;;;16.90;99.90;;;;;;5024782;28;20092;-63
2023/09/03 04:42:34;;;;;;;39.88;37.08;;;16.50;99.90;;;;;;5036260;28;20603;-63
2023/09/03 04:45:00;;;;;;;38.30;35.50;;;16.20;99.90;;;;;;5029622;28;20041;-64
2023/09/03 04:47:25;;;;;;;48.85;36.25;;;16.20;99.90;;;;;;5024376;28;20038;-63
2023/09/03 04:49:51;;;;;;;39.15;36.35;;;16.30;99.90;;;;;;5031826;28;20040;-63
2023/09/03 04:52:16;;;;;;;38.58;35.50;;;17.10;99.90;;;;;;5031728;28;20410;-63
2023/09/03 04:54:42;;;;;;;31.42;29.10;;;17.10;99.90;;;;;;5032742;28;20703;-64
2023/09/03 04:57:08;;;;;;;37.95;34.95;;;17.20;99.90;;;;;;5034212;28;20503;-64
2023/09/03 04:59:33;;;;;;;36.28;33.67;;;17.20;99.90;;;;;;5033466;28;20124;-63
2023/09/03 05:01:59;;;;;;;35.92;33.13;;;16.50;99.90;;;;;;5032460;28;20057;-63
2023/09/03 05:04:24;;;;;;;39.38;36.10;;;17.20;99.90;;;;;;5035419;28;20507;-63
2023/09/03 05:06:50;;;;;;;43.08;39.67;;;17.10;99.90;;;;;;5032178;28;20029;-64
2023/09/03 05:09:15;;;;;;;50.88;38.85;;;16.30;99.90;;;;;;5031348;28;20133;-63
2023/09/03 05:11:42;;;;;;;42.72;39.05;;;16.90;99.90;;;;;;5032096;28;20045;-63
2023/09/03 05:14:08;;;;;;;140.07;40.42;;;16.70;99.90;;;;;;5032690;28;20102;-63
2023/09/03 05:16:34;;;;;;;115.63;40.63;;;16.20;99.90;;;;;;5035897;28;20072;-64
2023/09/03 05:19:04;;;;;;;45.53;41.65;;;17.10;99.90;;;;;;5038420;28;20491;-63
2023/09/03 05:21:31;;;;;;;44.65;41.15;;;16.20;99.90;;;;;;5022191;28;20056;-63
2023/09/03 05:23:57;;;;;;;46.97;43.10;;;16.60;99.90;;;;;;5032042;28;20087;-63
2023/09/03 05:26:22;;;;;;;45.53;41.90;;;17.00;99.90;;;;;;5031921;28;20061;-64
2023/09/03 05:28:48;;;;;;;44.20;40.85;;;16.50;99.90;;;;;;5032164;28;20065;-67
2023/09/03 05:31:15;;;;;;;45.78;42.28;;;17.40;99.90;;;;;;5036671;28;20045;-66
2023/09/03 05:33:41;;;;;;;47.08;43.13;;;17.10;99.90;;;;;;5031964;28;20045;-67
2023/09/03 05:36:06;;;;;;;45.00;41.45;;;16.80;99.90;;;;;;5031541;28;20495;-66
2023/09/03 05:38:32;;;;;;;43.75;39.95;;;16.70;99.90;;;;;;5023766;28;20045;-66
2023/09/03 05:41:00;;;;;;;43.20;39.45;;;16.50;99.90;;;;;;5028953;28;20384;-66
2023/09/03 05:43:26;;;;;;;43.80;39.75;;;16.40;99.90;;;;;;5029054;28;20041;-67
2023/09/03 05:45:52;;;;;;;43.15;39.75;;;16.40;99.90;;;;;;5036966;28;20045;-67
2023/09/03 05:48:17;;;;;;;44.05;40.38;;;17.40;99.90;;;;;;5030119;28;20060;-66
2023/09/03 05:50:43;;;;;;;43.90;40.40;;;17.00;99.90;;;;;;5028361;28;20037;-66
2023/09/03 05:53:09;;;;;;;42.40;38.92;;;16.80;99.90;;;;;;5030313;28;20183;-66
2023/09/03 05:55:39;;;;;;;41.08;37.78;;;17.40;99.90;;;;;;5030483;28;20045;-67
2023/09/03 05:58:05;;;;;;;43.30;39.90;;;16.80;99.90;;;;;;5026766;28;20079;-67
2023/09/03 06:00:31;;;;;;;47.10;43.40;;;16.70;99.90;;;;;;5029239;28;20570;-66
2023/09/03 06:02:56;;;;;;;49.10;45.13;;;16.80;99.90;;;;;;5029155;28;20136;-67
2023/09/03 06:05:29;;;;;;;48.38;44.33;;;16.90;99.90;;;;;;5026781;28;20095;-67
2023/09/03 06:07:57;;;;;;;49.65;45.40;;;16.60;99.90;;;;;;5023909;28;20049;-66
2023/09/03 06:10:23;;;;;;;46.90;43.15;;;17.60;99.90;;;;;;5023016;28;20049;-66
2023/09/03 06:12:48;;;;;;;45.83;41.95;;;17.50;99.90;;;;;;5024993;28;20395;-67
2023/09/03 06:15:14;;;;;;;49.15;44.78;;;17.40;99.90;;;;;;5023820;28;20148;-67
2023/09/03 06:17:39;;;;;;;51.63;47.00;;;17.00;99.90;;;;;;5020796;28;20060;-66
2023/09/03 06:20:06;;;;;;;49.53;45.30;;;17.70;99.90;;;;;;5019605;28;20103;-67
2023/09/03 06:22:31;;;;;;;51.53;47.20;;;18.40;99.90;;;;;;5056068;28;20071;-67
2023/09/03 06:24:57;;;;;;;53.03;48.08;;;18.60;99.90;;;;;;5020362;28;20120;-67
2023/09/03 06:27:22;;;;;;;50.65;46.25;;;19.00;99.90;;;;;;5025814;28;20033;-67
2023/09/03 06:29:48;;;;;;;49.97;45.75;;;19.00;99.90;;;;;;5029341;28;20399;-67
2023/09/03 06:32:14;;;;;;;50.50;45.88;;;18.00;99.90;;;;;;5029495;28;20045;-67
2023/09/03 06:34:39;;;;;;;52.45;47.95;;;17.80;99.90;;;;;;5028724;28;20156;-66
2023/09/03 06:37:07;;;;;;;47.80;43.47;;;18.60;99.90;;;;;;5028448;28;20044;-66
2023/09/03 06:39:32;;;;;;;48.72;44.58;;;18.20;99.90;;;;;;5024430;28;20052;-66
2023/09/03 06:41:58;;;;;;;47.45;43.47;;;18.10;99.90;;;;;;5024327;28;20036;-67
2023/09/03 06:44:24;;;;;;;49.80;45.58;;;18.70;99.90;;;;;;5023110;28;20535;-67
2023/09/03 06:46:50;;;;;;;48.60;44.40;;;19.50;99.90;;;;;;5018017;28;20128;-67
2023/09/03 06:49:15;;;;;;;50.58;46.17;;;19.50;99.90;;;;;;5021938;28;20045;-66
2023/09/03 06:51:41;;;;;;;49.75;45.42;;;18.60;99.90;;;;;;5019882;28;20045;-67
2023/09/03 06:54:06;;;;;;;50.50;46.20;;;19.40;99.90;;;;;;5023268;28;20060;-66
2023/09/03 06:56:32;;;;;;;48.00;43.95;;;19.90;99.90;;;;;;5025051;28;20041;-66
2023/09/03 06:58:58;;;;;;;51.13;46.72;;;19.60;99.90;;;;;;5022780;28;20048;-67
2023/09/03 07:01:23;;;;;;;50.47;46.17;;;18.90;99.90;;;;;;5021882;28;20107;-66
2023/09/03 07:03:49;;;;;;;50.80;46.40;;;19.20;99.90;;;;;;5020696;28;20073;-67
2023/09/03 07:06:14;;;;;;;51.20;46.67;;;19.30;99.90;;;;;;5026932;28;20041;-67
2023/09/03 07:08:40;;;;;;;50.40;46.03;;;20.50;99.90;;;;;;5024109;28;20052;-66
2023/09/03 07:11:06;;;;;;;50.70;46.13;;;19.40;99.90;;;;;;5025074;28;20045;-67
2023/09/03 07:13:32;;;;;;;49.60;45.28;;;19.80;99.90;;;;;;5026986;28;20384;-67
2023/09/03 07:16:03;;;;;;;48.90;44.53;;;20.30;99.90;;;;;;5022206;28;20040;-67
2023/09/03 07:18:28;;;;;;;50.50;45.83;;;19.70;99.90;;;;;;5020838;28;20419;-67
2023/09/03 07:21:04;;;;;;;49.65;45.22;;;20.80;99.90;;;;;;5022614;28;20045;-67
2023/09/03 07:23:30;;;;;;;51.50;46.90;;;21.20;99.90;;;;;;5021427;28;20072;-67
2023/09/03 07:26:04;;;;;;;49.75;45.33;;;21.20;99.90;;;;;;5025401;28;20403;-67
2023/09/03 07:28:30;;;;;;;48.60;44.00;;;21.40;99.90;;;;;;5026895;28;20041;-67
2023/09/03 07:30:56;;;;;;;47.72;43.35;;;20.50;99.90;;;;;;5025596;28;20060;-67
2023/09/03 07:33:21;;;;;;;47.00;42.78;;;21.20;99.90;;;;;;5027101;28;20049;-67
2023/09/03 07:35:47;;;;;;;46.50;42.30;;;20.60;99.90;;;;;;5025892;28;20069;-68
2023/09/03 07:38:12;;;;;;;45.42;41.42;;;20.80;99.90;;;;;;5036574;28;20053;-68
2023/09/03 07:40:38;;;;;;;47.83;43.47;;;21.60;99.90;;;;;;5040568;28;20040;-66
2023/09/03 07:43:04;;;;;;;44.03;40.13;;;21.90;99.90;;;;;;5025607;28;20451;-67
2023/09/03 07:45:30;;;;;;;46.08;42.05;;;21.20;99.90;;;;;;5027481;28;20103;-67
2023/09/03 07:47:55;;;;;;;44.58;40.40;;;22.10;99.90;;;;;;5025731;28;20045;-64
2023/09/03 07:50:21;;;;;;;42.95;39.15;;;22.10;99.90;;;;;;5025052;28;20045;-65
2023/09/03 07:52:47;;;;;;;34.85;31.88;;;22.90;99.90;;;;;;5027437;28;20041;-65
2023/09/03 07:55:12;;;;;;;36.92;33.47;;;22.80;99.90;;;;;;5029602;28;20069;-66
2023/09/03 07:57:38;;;;;;;36.08;32.97;;;23.40;99.90;;;;;;5029249;28;20037;-65
2023/09/03 08:00:04;;;;;;;34.33;31.33;;;23.40;99.90;;;;;;5028979;28;20470;-65
2023/09/03 08:02:30;;;;;;;35.55;32.33;;;23.00;99.90;;;;;;5027919;28;20395;-64
2023/09/03 08:04:56;;;;;;;32.97;29.83;;;23.40;99.90;;;;;;5029590;28;20038;-65
2023/09/03 08:07:21;;;;;;;35.90;32.53;;;23.20;99.90;;;;;;5028930;28;20033;-65
2023/09/03 08:09:47;;;;;;;34.25;31.08;;;23.40;99.90;;;;;;5027770;28;20781;-64
2023/09/03 08:12:12;;;;;;;31.42;28.73;;;23.00;99.90;;;;;;5027323;28;20132;-65
2023/09/03 08:14:39;;;;;;;32.47;29.67;;;23.10;99.90;;;;;;5029164;28;20495;-65
2023/09/03 08:17:04;;;;;;;31.10;28.40;;;23.00;99.90;;;;;;5030994;28;20049;-65
2023/09/03 08:19:30;;;;;;;30.63;27.92;;;23.50;99.90;;;;;;5029174;28;20037;-65
2023/09/03 08:21:56;;;;;;;32.20;29.40;;;23.20;99.90;;;;;;5024242;28;20423;-65
2023/09/03 08:24:22;;;;;;;32.88;29.98;;;23.40;99.90;;;;;;5027904;28;20041;-66
2023/09/03 08:26:48;;;;;;;31.50;28.60;;;23.20;99.90;;;;;;5027668;28;20048;-65
2023/09/03 08:29:13;;;;;;;32.40;29.30;;;23.40;99.90;;;;;;5028118;28;20407;-65
2023/09/03 08:31:39;;;;;;;32.30;29.15;;;23.50;99.90;;;;;;5028944;28;20037;-66
2023/09/03 08:34:05;;;;;;;32.70;29.80;;;23.40;99.90;;;;;;5033030;28;20524;-65
2023/09/03 08:36:30;;;;;;;31.65;28.77;;;22.90;99.90;;;;;;5028500;28;20048;-65
2023/09/03 08:38:56;;;;;;;29.02;26.42;;;23.20;99.90;;;;;;5027376;28;20479;-65
2023/09/03 08:41:23;;;;;;;27.77;25.40;;;23.80;99.90;;;;;;5023830;28;20175;-66
2023/09/03 08:43:50;;;;;;;27.85;25.42;;;24.20;99.90;;;;;;5026826;28;20037;-66
2023/09/03 08:46:17;;;;;;;28.17;25.50;;;24.70;99.90;;;;;;5031753;28;20120;-65
2023/09/03 08:48:43;;;;;;;27.63;25.23;;;24.80;99.90;;;;;;5030300;28;20044;-62
2023/09/03 08:51:10;;;;;;;26.23;23.95;;;24.90;99.90;;;;;;5031277;28;20107;-64
2023/09/03 08:53:37;;;;;;;25.02;22.83;;;24.60;99.90;;;;;;5030008;28;20050;-65
2023/09/03 08:56:03;;;;;;;27.50;25.00;;;24.60;99.90;;;;;;5031408;28;20037;-64
2023/09/03 08:58:29;;;;;;;27.17;24.52;;;24.60;99.90;;;;;;5030097;28;20412;-65
2023/09/03 09:00:55;;;;;;;30.17;26.95;;;24.40;99.90;;;;;;5038385;28;20048;-65
2023/09/03 09:03:27;;;;;;;22.23;20.33;;;24.70;99.90;;;;;;5032076;28;20514;-65
2023/09/03 09:05:53;;;;;;;20.67;19.05;;;25.20;85.00;;;;;;5032186;28;20057;-65
2023/09/03 09:08:19;;;;;;;22.73;20.83;;;25.40;99.90;;;;;;5032256;28;20038;-65
2023/09/03 09:10:48;;;;;;;20.80;19.10;;;25.50;67.40;;;;;;5039808;28;20132;-64
2023/09/03 09:13:20;;;;;;;24.92;22.75;;;25.60;99.90;;;;;;5030124;28;20037;-65
2023/09/03 09:15:45;;;;;;;25.00;22.90;;;25.90;1.00;;;;;;5030107;28;20104;-65
2023/09/03 09:18:11;;;;;;;26.30;23.90;;;25.80;99.90;;;;;;5031656;28;20045;-65
2023/09/03 09:20:40;;;;;;;22.10;20.20;;;25.60;99.90;;;;;;5032041;28;20033;-65
2023/09/03 09:23:09;;;;;;;25.63;23.45;;;25.60;41.90;;;;;;5030239;28;20069;-65
2023/09/03 09:25:35;;;;;;;24.10;22.05;;;25.50;1.00;;;;;;5029787;28;20041;-65
2023/09/03 09:28:10;;;;;;;21.13;19.35;;;25.70;1.00;;;;;;5033920;28;20858;-65
2023/09/03 09:30:35;;;;;;;22.02;20.23;;;25.90;99.90;;;;;;5027673;28;20136;-65
2023/09/03 09:33:05;;;;;;;22.35;20.45;;;25.80;93.80;;;;;;5031011;28;20128;-65
2023/09/03 09:35:30;;;;;;;21.80;20.10;;;25.80;1.00;;;;;;5029469;28;20132;-65
2023/09/03 09:38:06;;;;;;;22.50;20.65;;;25.90;1.00;;;;;;5029414;28;20145;-65
2023/09/03 09:40:34;;;;;;;20.88;19.25;;;25.90;1.00;;;;;;5029104;28;20322;-65
2023/09/03 09:43:02;;;;;;;20.35;18.85;;;26.20;1.00;;;;;;5026802;28;20048;-64
2023/09/03 09:45:28;;;;;;;24.10;22.02;;;26.30;99.90;;;;;;5026793;28;20071;-65
2023/09/03 09:48:03;;;;;;;25.23;23.13;;;26.40;99.90;;;;;;5011288;28;20491;-65
2023/09/03 09:50:39;;;;;;;25.40;23.30;;;26.40;49.70;;;;;;5029275;28;20041;-66
2023/09/03 09:53:18;;;;;;;25.27;23.08;;;26.30;1.00;;;;;;5028543;28;20041;-66
2023/09/03 09:55:44;;;;;;;24.63;22.40;;;26.20;1.00;;;;;;5021856;28;20846;-66
2023/09/03 09:58:12;;;;;;;18.95;17.38;;;25.90;1.00;;;;;;5022706;28;20045;-65
2023/09/03 10:00:39;;;;;;;24.05;22.05;;;25.80;1.00;;;;;;5023794;28;20136;-65
2023/09/03 10:03:05;;;;;;;27.85;25.25;;;25.50;1.00;;;;;;5019135;28;20095;-67
2023/09/03 10:05:33;;;;;;;19.75;18.20;;;25.10;1.00;;;;;;5023382;28;20038;-66
2023/09/03 10:08:00;;;;;;;18.92;17.33;;;24.80;1.00;;;;;;5022391;28;20068;-67
2023/09/03 10:10:25;;;;;;;19.80;18.30;;;24.90;1.00;;;;;;5027385;28;20088;-62
2023/09/03 10:12:51;;;;;;;21.55;19.73;;;24.90;1.00;;;;;;5029896;28;20076;-62
2023/09/03 10:15:16;;;;;;;19.55;17.95;;;25.10;68.60;;;;;;5027607;28;20048;-63
2023/09/03 10:17:48;;;;;;;23.23;21.42;;;25.20;99.90;;;;;;5029066;28;20033;-62
2023/09/03 10:20:16;;;;;;;22.00;20.13;;;25.30;88.90;;;;;;5028181;28;20077;-65
2023/09/03 10:22:44;;;;;;;23.48;21.60;;;25.20;28.00;;;;;;5024723;28;20185;-62
2023/09/03 10:25:15;;;;;;;20.05;18.45;;;25.10;1.00;;;;;;5029930;28;20045;-62
2023/09/03 10:27:50;;;;;;;20.42;18.70;;;25.00;1.00;;;;;;5029902;28;20065;-63
2023/09/03 10:30:21;;;;;;;25.13;23.02;;;25.00;1.00;;;;;;5027924;28;20049;-63
2023/09/03 10:32:47;;;;;;;19.75;18.13;;;25.30;1.00;;;;;;5036706;28;20030;-62
2023/09/03 10:35:13;;;;;;;16.17;15.00;;;25.50;1.00;;;;;;5028403;28;20090;-64
2023/09/03 10:37:40;;;;;;;18.33;16.73;;;25.90;1.00;;;;;;5030243;28;20041;-64
2023/09/03 10:40:21;;;;;;;20.25;18.55;;;26.20;1.00;;;;;;5025920;28;20050;-63
2023/09/03 10:42:48;;;;;;;18.05;16.45;;;26.30;99.90;;;;;;5029708;28;20061;-62
2023/09/03 10:45:15;;;;;;;18.00;16.33;;;26.50;99.90;;;;;;5030453;28;20121;-62
2023/09/03 10:48:04;;;;;;;18.38;16.98;;;26.80;99.90;;;;;;5027295;28;20037;-63
2023/09/03 10:50:50;;;;;;;18.65;17.27;;;26.90;99.90;;;;;;5030032;28;20076;-63
2023/09/03 10:53:35;;;;;;;;;;;27.00;99.90;;;;;;5030592;28;20033;-62
2023/09/03 10:56:09;;;;;;;15.93;14.68;;;26.90;80.80;;;;;;5058936;28;19921;-62
2023/09/03 10:58:35;;;;;;;17.77;16.40;;;26.90;36.60;;;;;;5028828;28;20045;-62
2023/09/03 11:01:22;;;;;;;18.10;16.80;;;27.00;19.90;;;;;;5028174;28;20399;-64
2023/09/03 11:03:50;;;;;;;17.27;15.68;;;27.00;2.70;;;;;;5025222;28;20566;-61
2023/09/03 11:06:18;;;;;;;21.13;19.52;;;27.30;1.00;;;;;;5023894;28;20051;-62
2023/09/03 11:08:44;;;;;;;22.90;21.00;;;27.30;1.00;;;;;;5028879;28;20045;-63
2023/09/03 11:11:10;;;;;;;21.10;19.40;;;26.90;1.00;;;;;;5028281;28;20045;-63
2023/09/03 11:13:36;;;;;;;23.05;21.17;;;26.60;1.00;;;;;;5026536;28;20037;-62
2023/09/03 11:16:02;;;;;;;19.63;18.13;;;26.30;1.00;;;;;;5020868;28;20400;-63
2023/09/03 11:18:30;;;;;;;17.23;15.93;;;26.10;1.00;;;;;;5020121;28;20411;-66
2023/09/03 11:20:57;;;;;;;21.65;19.95;;;25.90;1.00;;;;;;5020919;28;20120;-66
2023/09/03 11:23:22;;;;;;;18.65;17.25;;;26.00;15.50;;;;;;5022201;28;20033;-65
2023/09/03 11:25:48;;;;;;;18.13;16.73;;;25.90;1.00;;;;;;5020115;28;20124;-66
2023/09/03 11:28:14;;;;;;;18.17;16.80;;;25.80;1.00;;;;;;5021428;28;20053;-65
2023/09/03 11:30:45;;;;;;;19.35;17.75;;;25.70;9.80;;;;;;5021506;28;20088;-66
2023/09/03 11:33:23;;;;;;;13.48;12.35;;;25.60;1.00;;;;;;5021058;28;20045;-66
2023/09/03 11:35:49;;;;;;;16.38;15.10;;;25.40;1.00;;;;;;5018567;28;20141;-66
2023/09/03 11:38:14;;;;;;;16.95;15.55;;;25.40;1.00;;;;;;5020339;28;20037;-67
2023/09/03 11:40:40;;;;;;;16.63;15.30;;;25.30;1.00;;;;;;5021438;28;20037;-65
2023/09/03 11:43:09;;;;;;;19.67;18.17;;;25.40;1.00;;;;;;5021325;28;20048;-66
2023/09/03 11:45:36;;;;;;;21.88;20.13;;;25.20;1.00;;;;;;5020804;28;20644;-65
2023/09/03 11:48:06;;;;;;;21.55;19.95;;;24.80;7.20;;;;;;5021152;28;20041;-67
2023/09/03 11:50:35;;;;;;;20.40;18.83;;;24.60;28.50;;;;;;5020942;28;20052;-65
2023/09/03 11:53:04;;;;;;;21.33;19.60;;;24.40;39.70;;;;;;5020561;28;20734;-65
2023/09/03 11:55:36;;;;;;;20.83;19.33;;;24.30;91.20;;;;;;5020302;28;20034;-65
2023/09/03 11:58:06;;;;;;;20.27;18.67;;;24.30;95.30;;;;;;5033957;28;20102;-66
2023/09/03 12:00:32;;;;;;;20.15;18.65;;;24.10;84.20;;;;;;5025557;28;20431;-66
2023/09/03 12:02:59;;;;;;;18.75;17.35;;;24.20;99.90;;;;;;5020706;28;20095;-70
2023/09/03 12:05:26;;;;;;;16.23;14.90;;;24.20;99.90;;;;;;5020326;28;20044;-70
2023/09/03 12:07:52;;;;;;;16.35;15.13;;;24.30;99.90;;;;;;5020981;28;20418;-66
2023/09/03 12:10:19;;;;;;;16.45;15.25;;;24.10;99.90;;;;;;5020897;28;20046;-70
2023/09/03 12:12:46;;;;;;;19.15;17.55;;;24.30;80.30;;;;;;5020661;28;20060;-68
2023/09/03 12:15:20;;;;;;;19.10;17.70;;;24.30;95.30;;;;;;5035638;28;20052;-68
2023/09/03 12:17:45;;;;;;;18.83;17.42;;;24.40;99.90;;;;;;5021730;28;20130;-69
2023/09/03 12:20:33;;;;;;;14.98;13.77;;;24.60;99.90;;;;;;5025000;28;20128;-68
2023/09/03 12:23:06;;;;;;;16.42;15.02;;;24.10;99.90;;;;;;5024112;28;20044;-66
2023/09/03 12:25:33;;;;;;;14.52;13.40;;;24.10;99.90;;;;;;5025088;28;20040;-63
2023/09/03 12:27:59;;;;;;;15.05;13.95;;;24.20;99.90;;;;;;5022766;28;20581;-65
2023/09/03 12:30:25;;;;;;;13.52;12.52;;;24.10;99.90;;;;;;5020842;28;20041;-64